Time;durP1;ratioP1;P1;durP2;ratioP2;P2;SDS_P1;SDS_P2;PMS_P1;PMS_P2;Temp;Humidity;BMP_temperature;BMP_pressure;BME280_temperature;BME280_humidity;BME280_pressure;Samples;Min_cycle;Max_cycle;Signal;HPM_P1;HPM_P2
2023/10/08 00:01:29;;;;;;;5.33;4.53;;;16.20;91.90;;;;;;10544388;28;20204;-80
2023/10/08 00:06:52;;;;;;;5.20;3.73;;;16.20;92.30;;;;;;10506211;28;20232;-81
2023/10/08 00:12:17;;;;;;;5.57;4.33;;;16.20;92.50;;;;;;10514136;28;20224;-79
2023/10/08 00:17:39;;;;;;;5.90;3.93;;;16.20;92.40;;;;;;10545452;28;20189;-79
2023/10/08 00:23:03;;;;;;;4.27;3.67;;;16.20;92.70;;;;;;10544813;28;20223;-80
2023/10/08 00:28:28;;;;;;;6.83;3.60;;;16.30;92.70;;;;;;10545736;28;20237;-80
2023/10/08 00:33:50;;;;;;;4.43;3.77;;;16.30;93.10;;;;;;10544964;28;20216;-80
2023/10/08 00:39:14;;;;;;;5.00;3.57;;;16.30;93.20;;;;;;10545487;28;20291;-78
2023/10/08 00:44:47;;;;;;;6.20;3.70;;;16.30;93.40;;;;;;10545223;28;20235;-81
2023/10/08 00:50:19;;;;;;;5.30;3.93;;;16.30;93.40;;;;;;10543701;28;20189;-80
2023/10/08 00:55:46;;;;;;;6.37;3.80;;;16.40;93.30;;;;;;10543120;28;20212;-80
2023/10/08 01:01:11;;;;;;;4.90;3.57;;;16.40;93.60;;;;;;10539174;28;20205;-79
2023/10/08 01:06:34;;;;;;;4.80;4.20;;;16.40;93.40;;;;;;10539221;28;20420;-80
2023/10/08 01:12:12;;;;;;;4.87;3.70;;;16.40;93.50;;;;;;10557826;28;20204;-80
2023/10/08 01:17:53;;;;;;;5.93;4.40;;;16.40;93.30;;;;;;10543453;28;20192;-80
2023/10/08 01:23:20;;;;;;;5.80;4.20;;;16.40;93.70;;;;;;10543031;28;20227;-79
2023/10/08 01:28:43;;;;;;;5.63;3.63;;;16.40;93.70;;;;;;10509831;28;20200;-80
2023/10/08 01:34:06;;;;;;;5.13;4.57;;;16.30;93.40;;;;;;10542027;28;20305;-80
2023/10/08 01:39:32;;;;;;;8.73;4.67;;;16.30;93.30;;;;;;10556154;28;20196;-79
2023/10/08 01:44:55;;;;;;;5.30;4.80;;;16.30;93.20;;;;;;10539606;28;20231;-78
2023/10/08 01:50:21;;;;;;;6.20;4.53;;;16.20;93.00;;;;;;10526900;28;20196;-79
2023/10/08 01:55:49;;;;;;;10.03;4.00;;;16.20;92.60;;;;;;10542092;28;20216;-80
2023/10/08 02:01:12;;;;;;;7.00;4.50;;;16.20;92.50;;;;;;10541575;28;20220;-79
2023/10/08 02:06:35;;;;;;;5.40;4.27;;;16.20;92.60;;;;;;10539045;28;20228;-80
2023/10/08 02:11:58;;;;;;;6.47;3.80;;;16.20;92.60;;;;;;10519307;28;20200;-80
2023/10/08 02:17:21;;;;;;;6.90;4.40;;;16.10;92.90;;;;;;10538244;28;20192;-79
2023/10/08 02:22:45;;;;;;;4.77;3.70;;;16.00;93.50;;;;;;10537707;28;20219;-79
2023/10/08 02:28:09;;;;;;;5.23;4.03;;;16.00;93.10;;;;;;10539197;28;20228;-80
2023/10/08 02:33:32;;;;;;;4.60;4.00;;;15.90;93.30;;;;;;10539211;28;20224;-79
2023/10/08 02:38:54;;;;;;;5.13;4.10;;;15.80;93.40;;;;;;10536981;28;20203;-79
2023/10/08 02:44:20;;;;;;;5.20;4.07;;;15.70;93.50;;;;;;10541844;28;20255;-79
2023/10/08 02:49:42;;;;;;;4.67;3.97;;;15.70;93.50;;;;;;10547365;28;20226;-79
2023/10/08 02:55:18;;;;;;;7.87;4.10;;;15.60;93.80;;;;;;10510631;28;20212;-80
2023/10/08 03:00:42;;;;;;;4.17;3.77;;;15.60;93.60;;;;;;10546433;28;20706;-79
2023/10/08 03:06:04;;;;;;;7.17;4.40;;;15.60;93.60;;;;;;10546667;28;20228;-79
2023/10/08 03:11:26;;;;;;;4.27;3.87;;;15.60;93.40;;;;;;10545682;28;20213;-78
2023/10/08 03:16:51;;;;;;;7.57;4.83;;;15.50;93.50;;;;;;10545030;28;20279;-79
2023/10/08 03:22:18;;;;;;;6.60;4.30;;;15.50;93.40;;;;;;10542929;28;20321;-79
2023/10/08 03:27:41;;;;;;;4.87;4.13;;;15.40;93.70;;;;;;10545762;28;20227;-79
2023/10/08 03:33:10;;;;;;;4.37;3.97;;;15.40;93.60;;;;;;10540846;28;20236;-79
2023/10/08 03:38:44;;;;;;;5.13;4.00;;;15.40;93.70;;;;;;10536017;28;20201;-79
2023/10/08 03:44:12;;;;;;;6.00;3.97;;;15.40;93.60;;;;;;10547642;28;20213;-79
2023/10/08 03:49:37;;;;;;;10.17;4.53;;;15.30;93.70;;;;;;10536702;28;20208;-79
2023/10/08 03:55:06;;;;;;;4.80;3.37;;;15.30;93.70;;;;;;10543888;28;20215;-79
2023/10/08 04:00:32;;;;;;;5.70;4.70;;;15.30;93.70;;;;;;10543866;28;20235;-79
2023/10/08 04:06:14;;;;;;;5.63;3.50;;;15.30;93.70;;;;;;10512968;28;20320;-79
2023/10/08 04:11:43;;;;;;;6.40;4.23;;;15.20;94.00;;;;;;10518577;28;20200;-78
2023/10/08 04:17:08;;;;;;;4.90;3.77;;;15.20;93.80;;;;;;10544696;28;20200;-79
2023/10/08 04:22:32;;;;;;;3.70;3.40;;;15.10;94.10;;;;;;10543842;28;20212;-79
2023/10/08 04:27:58;;;;;;;7.37;4.00;;;15.10;93.80;;;;;;10544286;28;20227;-79
2023/10/08 04:33:20;;;;;;;5.00;3.93;;;15.00;94.20;;;;;;10541396;28;20319;-79
2023/10/08 04:38:47;;;;;;;14.03;4.50;;;15.00;94.30;;;;;;10543877;28;20220;-79
2023/10/08 04:44:14;;;;;;;5.03;4.07;;;15.00;94.30;;;;;;10542026;28;20238;-78
2023/10/08 04:49:45;;;;;;;4.10;3.70;;;15.00;94.30;;;;;;10539115;28;20589;-78
2023/10/08 04:55:15;;;;;;;4.97;3.40;;;15.00;94.10;;;;;;10530183;28;20216;-79
2023/10/08 05:00:51;;;;;;;4.33;3.90;;;15.10;94.40;;;;;;10542191;28;20185;-79
2023/10/08 05:06:26;;;;;;;6.00;4.13;;;15.20;94.40;;;;;;10538669;28;20239;-78
2023/10/08 05:12:11;;;;;;;8.00;3.90;;;15.10;94.40;;;;;;10538299;28;20234;-79
2023/10/08 05:17:45;;;;;;;3.63;2.80;;;15.20;94.10;;;;;;10539741;28;20192;-78
2023/10/08 05:23:32;;;;;;;6.23;3.30;;;15.10;94.30;;;;;;10534008;28;20228;-79
2023/10/08 05:29:04;;;;;;;5.70;4.50;;;15.10;94.60;;;;;;10540954;28;20204;-78
2023/10/08 05:34:42;;;;;;;4.20;3.80;;;15.10;94.80;;;;;;10540539;28;20229;-79
2023/10/08 05:40:21;;;;;;;6.50;3.80;;;15.10;94.60;;;;;;10537546;28;20488;-79
2023/10/08 05:46:35;;;;;;;4.80;4.03;;;15.00;94.70;;;;;;10541074;28;20232;-79
2023/10/08 05:51:44;;;;;;;9.57;7.27;;;15.00;94.70;;;;;;10523141;28;20197;-79
2023/10/08 05:57:14;;;;;;;4.87;4.10;;;15.00;95.00;;;;;;10541690;28;20250;-79
2023/10/08 06:03:00;;;;;;;5.90;3.80;;;15.00;95.10;;;;;;10539904;28;20239;-79
2023/10/08 06:08:38;;;;;;;7.57;4.50;;;15.00;95.60;;;;;;10496124;28;20247;-79
2023/10/08 06:14:00;;;;;;;4.90;4.47;;;15.00;95.20;;;;;;10530348;28;20708;-79
2023/10/08 06:19:25;;;;;;;6.10;5.50;;;15.00;95.20;;;;;;10534305;28;21006;-79
2023/10/08 06:24:47;;;;;;;9.13;6.60;;;15.00;95.40;;;;;;10539049;28;20220;-79
2023/10/08 06:30:16;;;;;;;6.17;4.63;;;15.00;95.60;;;;;;10538395;28;20200;-79
2023/10/08 06:35:44;;;;;;;4.80;4.00;;;15.10;95.50;;;;;;10540221;28;20226;-79
2023/10/08 06:41:08;;;;;;;6.30;4.00;;;15.10;95.60;;;;;;10533032;28;20666;-76
2023/10/08 06:46:32;;;;;;;5.63;4.23;;;15.20;95.80;;;;;;10533496;28;20220;-79
2023/10/08 06:51:56;;;;;;;9.83;5.07;;;15.20;95.90;;;;;;10538649;28;20224;-79
2023/10/08 06:57:20;;;;;;;7.97;4.60;;;15.20;96.10;;;;;;10533470;28;20196;-78
2023/10/08 07:02:42;;;;;;;6.47;4.83;;;15.30;96.10;;;;;;10502850;28;20220;-79
2023/10/08 07:08:07;;;;;;;5.37;4.10;;;15.30;96.30;;;;;;10537279;28;20713;-80
2023/10/08 07:13:30;;;;;;;5.43;4.20;;;15.30;96.30;;;;;;10539866;28;20240;-80
2023/10/08 07:18:52;;;;;;;5.70;3.70;;;15.40;96.40;;;;;;10537803;28;20246;-80
2023/10/08 07:24:17;;;;;;;7.20;4.17;;;15.50;96.30;;;;;;10541797;28;20227;-80
2023/10/08 07:29:39;;;;;;;4.10;3.20;;;15.60;96.10;;;;;;10537768;28;20196;-80
2023/10/08 07:35:23;;;;;;;7.00;4.50;;;15.90;96.10;;;;;;10545658;28;20208;-78
2023/10/08 07:40:46;;;;;;;3.53;3.23;;;16.20;96.30;;;;;;10540009;28;20197;-78
2023/10/08 07:46:09;;;;;;;3.70;3.40;;;16.50;96.60;;;;;;10538329;28;20732;-79
2023/10/08 07:51:31;;;;;;;4.23;3.13;;;16.70;96.80;;;;;;10511717;28;20201;-78
2023/10/08 07:56:59;;;;;;;4.50;3.43;;;17.00;96.90;;;;;;10540389;28;20207;-78
2023/10/08 08:02:23;;;;;;;5.53;3.50;;;17.20;97.00;;;;;;10538597;28;20216;-79
2023/10/08 08:07:46;;;;;;;7.50;3.97;;;17.30;96.00;;;;;;10538518;28;20216;-79
2023/10/08 08:13:10;;;;;;;6.47;4.40;;;17.50;96.10;;;;;;10538230;28;20247;-77
2023/10/08 08:18:33;;;;;;;5.10;3.77;;;17.60;95.80;;;;;;10537639;28;20196;-79
2023/10/08 08:24:04;;;;;;;8.80;4.47;;;17.70;96.30;;;;;;10538875;28;20588;-79
2023/10/08 08:29:28;;;;;;;7.13;4.60;;;17.80;95.70;;;;;;10528577;28;20195;-80
2023/10/08 08:34:52;;;;;;;4.83;3.80;;;17.70;94.30;;;;;;10547595;28;20301;-81
2023/10/08 08:40:17;;;;;;;7.23;4.10;;;17.70;95.60;;;;;;10548468;28;20272;-80
2023/10/08 08:45:41;;;;;;;6.90;4.07;;;17.60;95.90;;;;;;10540740;28;20255;-80
2023/10/08 08:51:03;;;;;;;7.70;3.50;;;17.50;94.20;;;;;;10539140;28;20200;-79
2023/10/08 08:56:31;;;;;;;5.47;4.33;;;17.60;95.00;;;;;;10543739;28;20244;-79
2023/10/08 09:01:55;;;;;;;6.47;4.27;;;17.70;96.10;;;;;;10543882;28;20693;-80
2023/10/08 09:07:22;;;;;;;6.17;4.40;;;17.80;96.50;;;;;;10540898;28;20251;-79
2023/10/08 09:12:45;;;;;;;11.23;5.90;;;17.80;97.10;;;;;;10541656;28;20968;-79
2023/10/08 09:18:09;;;;;;;6.00;4.73;;;17.90;97.10;;;;;;10534936;28;20196;-79
2023/10/08 09:23:31;;;;;;;6.70;4.10;;;17.90;97.30;;;;;;10537235;28;20689;-79
2023/10/08 09:28:54;;;;;;;5.20;4.00;;;18.10;97.50;;;;;;10537812;28;20220;-79
2023/10/08 09:34:18;;;;;;;11.07;5.07;;;18.40;97.40;;;;;;10537509;28;20730;-79
2023/10/08 09:39:45;;;;;;;6.93;4.17;;;18.70;96.80;;;;;;10538179;28;20188;-79
2023/10/08 09:45:08;;;;;;;6.60;4.10;;;18.90;97.10;;;;;;10530873;28;20507;-79
2023/10/08 09:50:39;;;;;;;3.20;2.90;;;19.20;95.50;;;;;;10536382;28;20212;-80
2023/10/08 09:56:07;;;;;;;3.50;3.20;;;19.40;96.30;;;;;;10522512;28;20245;-79
2023/10/08 10:01:31;;;;;;;4.80;3.60;;;19.60;96.80;;;;;;10530496;28;20207;-79
2023/10/08 10:06:57;;;;;;;4.50;3.37;;;19.80;95.90;;;;;;10528399;28;20235;-79
2023/10/08 10:12:25;;;;;;;7.13;3.97;;;19.90;96.40;;;;;;10525446;28;20246;-79
2023/10/08 10:17:49;;;;;;;4.63;3.67;;;20.10;97.00;;;;;;10521101;28;20720;-79
2023/10/08 10:23:37;;;;;;;5.40;3.77;;;20.10;97.10;;;;;;10530163;28;20303;-79
2023/10/08 10:29:26;;;;;;;7.30;3.70;;;20.20;96.00;;;;;;10529823;28;20305;-79
2023/10/08 10:34:51;;;;;;;6.40;4.10;;;20.40;96.00;;;;;;10524232;28;20223;-77
2023/10/08 10:40:29;;;;;;;10.27;4.67;;;20.50;96.40;;;;;;10527030;28;20256;-79
2023/10/08 10:45:54;;;;;;;7.57;3.90;;;20.60;96.10;;;;;;10526360;28;20220;-79
2023/10/08 10:51:18;;;;;;;7.83;3.87;;;20.60;96.20;;;;;;10515602;28;20333;-80
2023/10/08 10:56:44;;;;;;;3.63;3.27;;;20.60;96.50;;;;;;10524329;28;20289;-79
2023/10/08 11:02:20;;;;;;;6.40;3.97;;;20.50;95.90;;;;;;10523099;28;20307;-80
2023/10/08 11:07:44;;;;;;;7.80;4.57;;;20.30;95.80;;;;;;10541100;28;20227;-79
2023/10/08 11:13:14;;;;;;;6.80;4.50;;;20.30;94.60;;;;;;10536972;28;20544;-78
2023/10/08 11:18:42;;;;;;;4.03;3.20;;;20.40;94.10;;;;;;10521607;28;21398;-80
2023/10/08 11:24:09;;;;;;;6.37;3.93;;;20.50;95.00;;;;;;10530547;28;20309;-80
2023/10/08 11:29:33;;;;;;;6.30;3.90;;;20.40;95.20;;;;;;10533883;28;20313;-77
2023/10/08 11:34:59;;;;;;;4.17;3.70;;;20.30;96.00;;;;;;10531189;28;20243;-79
2023/10/08 11:40:28;;;;;;;5.10;3.90;;;20.10;96.70;;;;;;10532025;28;20254;-78
2023/10/08 11:45:52;;;;;;;4.50;3.50;;;20.10;97.50;;;;;;10532628;28;20231;-77
2023/10/08 11:51:17;;;;;;;4.60;3.70;;;20.00;98.00;;;;;;10532378;28;20195;-77
2023/10/08 11:56:40;;;;;;;6.20;3.70;;;20.20;98.20;;;;;;10533285;28;20219;-78
2023/10/08 12:02:05;;;;;;;5.10;3.50;;;20.20;98.20;;;;;;10523323;28;20645;-78
2023/10/08 12:07:27;;;;;;;7.30;4.33;;;20.20;98.30;;;;;;10529257;28;20224;-77
2023/10/08 12:12:52;;;;;;;4.17;3.20;;;20.20;98.50;;;;;;10526639;28;20228;-79
2023/10/08 12:18:24;;;;;;;3.90;3.50;;;20.40;97.70;;;;;;10533491;28;20202;-80
2023/10/08 12:23:47;;;;;;;6.40;4.27;;;20.60;97.20;;;;;;10543269;28;20277;-80
2023/10/08 12:29:09;;;;;;;6.80;4.00;;;20.60;97.50;;;;;;10536391;28;20286;-79
2023/10/08 12:34:38;;;;;;;7.27;3.90;;;20.50;97.30;;;;;;10536145;28;20255;-80
2023/10/08 12:40:11;;;;;;;6.30;4.57;;;20.40;97.00;;;;;;10526436;28;20206;-79
2023/10/08 12:45:33;;;;;;;9.03;5.70;;;20.20;96.50;;;;;;10526626;28;20229;-79
2023/10/08 12:50:57;;;;;;;5.27;3.70;;;20.10;97.30;;;;;;10536941;28;20201;-79
2023/10/08 12:56:21;;;;;;;7.80;4.50;;;20.00;98.00;;;;;;10538821;28;20216;-77
2023/10/08 13:01:43;;;;;;;7.77;4.27;;;19.90;98.40;;;;;;10531200;28;20196;-79
2023/10/08 13:07:07;;;;;;;5.97;3.90;;;19.80;98.10;;;;;;10532390;28;20597;-79
2023/10/08 13:12:29;;;;;;;11.23;4.93;;;19.80;98.20;;;;;;10534702;28;20216;-79
2023/10/08 13:17:52;;;;;;;8.60;4.30;;;19.70;98.20;;;;;;10533726;28;20203;-77
2023/10/08 13:23:15;;;;;;;7.70;4.20;;;19.60;98.20;;;;;;10531464;28;20224;-78
2023/10/08 13:28:39;;;;;;;7.23;4.00;;;19.70;95.90;;;;;;10534417;28;20569;-80
2023/10/08 13:34:08;;;;;;;10.87;3.77;;;19.80;95.60;;;;;;10530756;28;20232;-80
2023/10/08 13:39:31;;;;;;;5.03;3.07;;;20.00;95.10;;;;;;10536934;28;20554;-80
2023/10/08 13:44:57;;;;;;;9.20;4.50;;;20.10;94.70;;;;;;10530997;28;20594;-79
2023/10/08 13:50:21;;;;;;;8.73;4.10;;;20.20;94.00;;;;;;10535246;28;20261;-80
2023/10/08 13:55:45;;;;;;;5.53;3.23;;;20.40;93.80;;;;;;10527576;28;20209;-80
2023/10/08 14:01:18;;;;;;;11.47;3.90;;;20.40;93.80;;;;;;10536997;28;20215;-80
2023/10/08 14:06:47;;;;;;;8.17;3.93;;;20.50;93.60;;;;;;10536723;28;20277;-80
2023/10/08 14:12:11;;;;;;;8.10;4.20;;;20.60;93.20;;;;;;10529914;28;20235;-80
2023/10/08 14:17:42;;;;;;;15.10;4.50;;;20.60;93.10;;;;;;10536140;28;20224;-80
2023/10/08 14:23:05;;;;;;;10.17;5.03;;;20.70;92.50;;;;;;10536744;28;20252;-80
2023/10/08 14:28:40;;;;;;;11.17;4.60;;;20.80;92.40;;;;;;10531968;28;20273;-81
2023/10/08 14:34:18;;;;;;;14.93;4.40;;;20.90;92.10;;;;;;10529763;28;20262;-82
2023/10/08 14:45:22;;;;;;;5.33;3.43;;;20.90;92.30;;;;;;10548844;28;20209;-81
2023/10/08 14:50:49;;;;;;;11.93;3.87;;;20.90;92.30;;;;;;10556826;28;20231;-81
2023/10/08 14:56:12;;;;;;;5.50;3.77;;;20.90;92.70;;;;;;10544454;28;20224;-81
2023/10/08 15:01:36;;;;;;;8.00;3.80;;;20.90;92.70;;;;;;10543042;28;20196;-81
2023/10/08 15:06:58;;;;;;;6.17;4.20;;;20.90;91.80;;;;;;10544765;28;20299;-81
2023/10/08 15:12:21;;;;;;;7.13;3.70;;;21.00;92.00;;;;;;10540931;28;20220;-81
2023/10/08 15:17:46;;;;;;;4.53;3.50;;;21.00;91.70;;;;;;10560122;28;20196;-81
2023/10/08 15:23:11;;;;;;;8.17;3.73;;;21.10;92.30;;;;;;10541733;28;20219;-81
2023/10/08 15:28:34;;;;;;;9.97;3.57;;;21.10;92.50;;;;;;10540528;28;20235;-81
2023/10/08 15:33:57;;;;;;;9.00;3.70;;;21.00;92.80;;;;;;10533414;28;20240;-81
2023/10/08 15:39:22;;;;;;;14.67;4.40;;;20.90;92.60;;;;;;10540092;28;20201;-81
2023/10/08 15:44:44;;;;;;;6.33;3.10;;;20.80;93.60;;;;;;10530510;28;20212;-81
2023/10/08 15:50:10;;;;;;;5.23;3.20;;;20.70;93.70;;;;;;10534368;28;20310;-81
2023/10/08 15:55:32;;;;;;;8.80;4.10;;;20.60;94.60;;;;;;10540385;28;20235;-81
2023/10/08 16:00:54;;;;;;;11.23;4.63;;;20.50;95.20;;;;;;10541302;28;20192;-81
2023/10/08 16:06:19;;;;;;;6.83;3.70;;;20.40;96.00;;;;;;10537636;28;20216;-81
2023/10/08 16:11:41;;;;;;;7.40;5.10;;;20.30;95.30;;;;;;10541568;28;20211;-81
2023/10/08 16:17:07;;;;;;;8.40;4.27;;;20.40;94.70;;;;;;10535030;28;20212;-81
2023/10/08 16:22:31;;;;;;;4.87;3.90;;;20.50;95.00;;;;;;10538680;28;20814;-82
2023/10/08 16:27:53;;;;;;;7.60;3.90;;;20.50;95.20;;;;;;10542130;28;20216;-82
2023/10/08 16:33:16;;;;;;;13.60;4.73;;;20.40;95.40;;;;;;10543679;28;20624;-82
2023/10/08 16:38:39;;;;;;;10.33;4.17;;;20.30;95.90;;;;;;10540531;28;20200;-82
2023/10/08 16:44:02;;;;;;;7.07;3.90;;;20.20;96.00;;;;;;10542763;28;20220;-81
2023/10/08 16:49:28;;;;;;;8.93;4.07;;;20.00;96.10;;;;;;10515073;28;20335;-81
2023/10/08 16:54:53;;;;;;;8.90;4.27;;;19.80;96.40;;;;;;10525947;28;20221;-80
2023/10/08 17:00:15;;;;;;;7.70;4.60;;;19.70;96.70;;;;;;10531953;28;20689;-80
2023/10/08 17:05:40;;;;;;;10.53;6.60;;;19.50;96.70;;;;;;10531794;28;20235;-80
2023/10/08 17:11:05;;;;;;;11.37;5.40;;;19.40;96.50;;;;;;10530229;28;20215;-80
2023/10/08 17:16:27;;;;;;;10.10;6.50;;;19.30;96.80;;;;;;10534827;28;20215;-80
2023/10/08 17:21:49;;;;;;;10.23;6.13;;;19.20;96.90;;;;;;10533150;28;20208;-80
2023/10/08 17:27:13;;;;;;;7.23;5.00;;;19.10;96.30;;;;;;10530964;28;20697;-80
2023/10/08 17:32:36;;;;;;;8.30;5.03;;;19.00;96.30;;;;;;10533200;28;20293;-80
2023/10/08 17:37:58;;;;;;;11.03;4.17;;;19.00;96.30;;;;;;10534093;28;20595;-80
2023/10/08 17:43:24;;;;;;;9.43;4.93;;;18.90;96.30;;;;;;10538734;28;20280;-81
2023/10/08 17:48:46;;;;;;;11.20;5.67;;;18.90;96.20;;;;;;10530025;28;20231;-80
2023/10/08 17:54:10;;;;;;;10.30;5.40;;;18.90;96.30;;;;;;10513209;28;20335;-81
2023/10/08 17:59:33;;;;;;;15.60;5.83;;;18.80;96.40;;;;;;10532814;28;20200;-81
2023/10/08 18:04:56;;;;;;;8.37;5.23;;;18.70;96.50;;;;;;10525444;28;20761;-81
2023/10/08 18:10:20;;;;;;;7.53;5.33;;;18.70;96.60;;;;;;10527352;28;20231;-81
2023/10/08 18:15:43;;;;;;;8.90;4.40;;;18.60;96.60;;;;;;10531599;28;20227;-81
2023/10/08 18:21:09;;;;;;;8.23;4.97;;;18.60;96.70;;;;;;10526999;28;20204;-76
2023/10/08 18:26:31;;;;;;;9.37;5.03;;;18.60;96.90;;;;;;10533160;28;20721;-81
2023/10/08 18:31:55;;;;;;;10.73;5.20;;;18.50;97.10;;;;;;10543571;28;20212;-81
2023/10/08 18:37:17;;;;;;;7.67;5.77;;;18.50;97.00;;;;;;10551157;28;20394;-80
2023/10/08 18:42:39;;;;;;;12.30;6.30;;;18.40;97.00;;;;;;10548578;28;20347;-80
2023/10/08 18:48:05;;;;;;;10.07;5.40;;;18.40;97.10;;;;;;10541330;28;20235;-81
2023/10/08 18:53:28;;;;;;;8.00;5.00;;;18.30;97.20;;;;;;10529026;28;20692;-80
2023/10/08 18:58:51;;;;;;;9.07;4.07;;;18.30;97.60;;;;;;10522180;28;20200;-80
2023/10/08 19:04:15;;;;;;;7.30;4.90;;;18.20;97.70;;;;;;10523724;28;20224;-80
2023/10/08 19:09:38;;;;;;;8.70;5.07;;;18.10;98.10;;;;;;10518881;28;20689;-80
2023/10/08 19:15:00;;;;;;;12.10;5.47;;;18.10;97.70;;;;;;10520293;28;20645;-79
2023/10/08 19:20:24;;;;;;;8.77;4.67;;;18.00;97.70;;;;;;10528744;28;20193;-80
2023/10/08 19:25:48;;;;;;;7.20;4.67;;;18.00;97.80;;;;;;10530569;28;20577;-77
2023/10/08 19:31:12;;;;;;;7.53;5.10;;;17.90;97.90;;;;;;10527679;28;20281;-79
2023/10/08 19:36:36;;;;;;;7.73;4.43;;;17.80;97.90;;;;;;10532599;28;20228;-79
2023/10/08 19:41:58;;;;;;;8.40;4.47;;;17.80;98.00;;;;;;10527788;28;20188;-80
2023/10/08 19:47:20;;;;;;;6.13;4.40;;;17.70;98.10;;;;;;10535739;28;20307;-80
2023/10/08 19:52:44;;;;;;;6.50;3.73;;;17.70;98.30;;;;;;10532164;28;20223;-80
2023/10/08 19:58:06;;;;;;;4.80;3.43;;;17.60;98.30;;;;;;10536239;28;20569;-79
2023/10/08 20:03:29;;;;;;;8.80;4.50;;;17.60;98.30;;;;;;10535796;28;20224;-80
2023/10/08 20:08:52;;;;;;;6.30;4.40;;;17.50;98.20;;;;;;10538908;28;20226;-79
2023/10/08 20:14:14;;;;;;;9.17;4.80;;;17.50;98.40;;;;;;10538391;28;20220;-79
2023/10/08 20:19:37;;;;;;;9.47;4.10;;;17.50;98.60;;;;;;10538851;28;20218;-79
2023/10/08 20:25:02;;;;;;;8.70;4.43;;;17.40;98.80;;;;;;10537762;28;20227;-80
2023/10/08 20:30:25;;;;;;;8.57;4.90;;;17.40;98.80;;;;;;10531240;28;20221;-80
2023/10/08 20:35:51;;;;;;;7.77;4.73;;;17.40;98.60;;;;;;10524300;28;20224;-78
2023/10/08 20:41:20;;;;;;;8.70;5.37;;;17.30;98.80;;;;;;10546385;28;20200;-78
2023/10/08 20:46:42;;;;;;;7.93;4.90;;;17.30;99.00;;;;;;10536612;28;20227;-79
2023/10/08 20:52:04;;;;;;;10.43;4.00;;;17.30;99.10;;;;;;10533911;28;20203;-79
2023/10/08 20:57:29;;;;;;;9.40;5.23;;;17.20;99.20;;;;;;10535397;28;20192;-80
2023/10/08 21:02:52;;;;;;;6.80;5.20;;;17.20;99.30;;;;;;10526860;28;20228;-79
2023/10/08 21:08:15;;;;;;;5.77;4.50;;;17.10;99.50;;;;;;10530671;28;20224;-80
2023/10/08 21:13:38;;;;;;;8.00;4.77;;;17.10;99.70;;;;;;10534235;28;20688;-79
2023/10/08 21:19:01;;;;;;;10.13;5.27;;;17.10;99.80;;;;;;10526553;28;20270;-81
2023/10/08 21:24:23;;;;;;;6.53;4.57;;;17.10;99.70;;;;;;10537042;28;20219;-80
2023/10/08 21:29:48;;;;;;;9.30;4.87;;;17.10;99.80;;;;;;10537058;28;20220;-80
2023/10/08 21:35:12;;;;;;;11.17;4.67;;;17.10;99.90;;;;;;10526719;28;20232;-80
2023/10/08 21:40:36;;;;;;;7.70;4.47;;;17.00;99.90;;;;;;10536541;28;20575;-80
2023/10/08 21:45:59;;;;;;;9.43;4.77;;;17.00;99.70;;;;;;10535793;28;20212;-80
2023/10/08 21:51:24;;;;;;;9.07;4.43;;;16.90;99.70;;;;;;10536059;28;20216;-80
2023/10/08 21:56:46;;;;;;;5.73;4.47;;;16.90;99.80;;;;;;10534920;28;20266;-79
2023/10/08 22:02:09;;;;;;;9.43;5.10;;;16.90;99.80;;;;;;10532998;28;20228;-80
2023/10/08 22:07:32;;;;;;;8.67;4.67;;;16.80;99.70;;;;;;10537508;28;20231;-80
2023/10/08 22:12:54;;;;;;;8.60;4.50;;;16.80;99.90;;;;;;10533656;28;20700;-79
2023/10/08 22:18:28;;;;;;;9.00;4.67;;;16.80;99.90;;;;;;10536707;28;20196;-80
2023/10/08 22:23:52;;;;;;;12.83;6.07;;;16.70;99.80;;;;;;10536780;28;20261;-78
2023/10/08 22:29:15;;;;;;;7.53;4.33;;;16.70;99.90;;;;;;10531663;28;20236;-78
2023/10/08 22:34:42;;;;;;;10.07;5.43;;;16.70;99.90;;;;;;10538509;28;20224;-79
2023/10/08 22:40:14;;;;;;;12.30;4.90;;;16.60;99.70;;;;;;10531015;28;20499;-80
2023/10/08 22:45:37;;;;;;;9.27;5.13;;;16.60;99.20;;;;;;10534549;28;20250;-79
2023/10/08 22:51:02;;;;;;;12.63;5.60;;;16.60;99.20;;;;;;10532449;28;20253;-79
2023/10/08 22:56:25;;;;;;;11.23;4.90;;;16.60;98.90;;;;;;10534388;28;20219;-80
2023/10/08 23:01:48;;;;;;;17.70;5.47;;;16.50;98.50;;;;;;10541927;28;20200;-80
2023/10/08 23:07:11;;;;;;;18.70;5.43;;;16.40;98.50;;;;;;10544378;28;20212;-79
2023/10/08 23:12:33;;;;;;;14.17;5.73;;;16.40;98.50;;;;;;10541774;28;20693;-80
2023/10/08 23:17:56;;;;;;;14.23;5.03;;;16.40;98.60;;;;;;10542467;28;20550;-79
2023/10/08 23:23:21;;;;;;;11.23;4.83;;;16.30;98.40;;;;;;10541092;28;20261;-80
2023/10/08 23:28:44;;;;;;;16.50;6.20;;;16.30;98.30;;;;;;10541407;28;20243;-80
2023/10/08 23:34:08;;;;;;;15.10;4.93;;;16.30;98.40;;;;;;10536063;28;20321;-80
2023/10/08 23:39:35;;;;;;;18.20;6.40;;;16.20;98.40;;;;;;10540583;28;20204;-80
2023/10/08 23:44:59;;;;;;;22.20;4.80;;;16.20;98.50;;;;;;10543750;28;20591;-80
2023/10/08 23:50:30;;;;;;;16.20;5.23;;;16.10;98.30;;;;;;10544467;28;20216;-79
2023/10/08 23:56:04;;;;;;;23.47;5.90;;;16.10;98.50;;;;;;10499087;28;20294;-80
